Agudos do Sul, Brazil
Current Conditions -  °F | °C
As of 3:00 PM on Sunday 21 Dec 2014 (Local Time) from SBCT Reporting Station
Rain Showers Rain Showers  
Wind Chill: 73°   Ceiling: 1300
Heat Index: 73°   Visibility: 6mi
Dew Point: 68°   Wind: 14mph
Humidity: 83%   Direction: 340°NNW
Pressure: NA   Gusts: NA
Location:  25.99°S, 49.34°W
Report Text: SBCT 211700Z 34012KT 9999 VCSH BKN013 FEW035TCU BKN090 23/20 Q1011 RETS
Loading
Personal Weather Stations






























Interactive Weather Map New forecast layout! Learn more

10-Day Weather Forecast

Advertisements
Track Severe Weather on mobile